Time;durP1;ratioP1;P1;durP2;ratioP2;P2;SDS_P1;SDS_P2;PMS_P1;PMS_P2;Temp;Humidity;BMP_temperature;BMP_pressure;BME280_temperature;BME280_humidity;BME280_pressure;Samples;Min_cycle;Max_cycle;Signal;HPM_P1;HPM_P2
2023/05/26 00:00:04;;;;;;;21.73;12.88;;;;;;;12.72;100.00;101415.28;4921017;29;20092;-76
2023/05/26 00:02:30;;;;;;;24.30;12.18;;;;;;;12.72;100.00;101415.28;4919184;29;20041;-76
2023/05/26 00:05:01;;;;;;;28.33;13.10;;;;;;;12.63;100.00;101408.66;4917734;29;20691;-76
2023/05/26 00:07:26;;;;;;;21.38;10.95;;;;;;;12.69;100.00;101406.69;4904562;29;20060;-76
2023/05/26 00:09:52;;;;;;;30.75;14.02;;;;;;;12.54;100.00;101407.59;4919992;29;20390;-76
2023/05/26 00:12:17;;;;;;;21.20;11.40;;;;;;;12.65;100.00;101405.59;4920448;29;20036;-76
2023/05/26 00:14:43;;;;;;;23.77;10.48;;;;;;;12.66;100.00;101399.72;4934990;29;20087;-76
2023/05/26 00:17:09;;;;;;;26.42;11.05;;;;;;;12.68;100.00;101399.44;4933309;29;20029;-76
2023/05/26 00:19:35;;;;;;;23.25;10.43;;;;;;;12.72;100.00;101395.78;4920190;29;20115;-76
2023/05/26 00:22:02;;;;;;;24.98;11.55;;;;;;;12.67;100.00;101401.38;4934016;29;20048;-76
2023/05/26 00:24:27;;;;;;;20.83;9.98;;;;;;;12.72;100.00;101395.78;4919459;29;20500;-76
2023/05/26 00:26:53;;;;;;;18.58;10.15;;;;;;;12.68;100.00;101405.03;4918125;29;20025;-76
2023/05/26 00:29:19;;;;;;;20.33;10.30;;;;;;;12.69;100.00;101406.69;4918888;29;20036;-76
2023/05/26 00:31:44;;;;;;;21.60;11.40;;;;;;;12.67;100.00;101406.13;4907919;29;20063;-76
2023/05/26 00:34:10;;;;;;;29.88;13.60;;;;;;;12.62;100.00;101414.50;4934892;29;20382;-76
2023/05/26 00:36:35;;;;;;;24.38;11.20;;;;;;;12.61;100.00;101402.53;4934240;28;20158;-76
2023/05/26 00:39:01;;;;;;;22.63;11.18;;;;;;;12.63;100.00;101394.72;4914704;29;20032;-76
2023/05/26 00:41:26;;;;;;;19.98;10.48;;;;;;;12.63;100.00;101391.94;4915156;29;20032;-76
2023/05/26 00:43:52;;;;;;;17.20;9.10;;;;;;;12.63;100.00;101393.91;4934681;29;20044;-76
2023/05/26 00:46:18;;;;;;;24.77;12.38;;;;;;;12.58;100.00;101391.13;4918834;29;20028;-76
2023/05/26 00:48:43;;;;;;;20.63;10.27;;;;;;;12.57;100.00;101390.31;4920087;29;20036;-76
2023/05/26 00:51:11;;;;;;;27.00;14.43;;;;;;;12.44;100.00;101383.38;4934273;29;20039;-76
2023/05/26 00:53:39;;;;;;;22.02;11.57;;;;;;;12.47;100.00;101390.34;4934995;29;20036;-76
2023/05/26 00:56:05;;;;;;;21.88;11.32;;;;;;;12.46;100.00;101383.94;4933493;29;20490;-76
2023/05/26 00:58:30;;;;;;;21.95;11.35;;;;;;;12.46;100.00;101385.91;4941018;29;20087;-76
2023/05/26 01:00:57;;;;;;;22.52;11.02;;;;;;;12.45;100.00;101387.84;4945195;29;20094;-76
2023/05/26 01:03:22;;;;;;;25.63;12.50;;;;;;;12.44;100.00;101388.13;4945356;29;20090;-76
2023/05/26 01:05:48;;;;;;;22.92;12.77;;;;;;;12.43;100.00;101381.72;4931476;29;20052;-76
2023/05/26 01:08:13;;;;;;;22.48;12.65;;;;;;;12.40;100.00;101389.84;4925246;29;20043;-76
2023/05/26 01:10:39;;;;;;;28.67;11.52;;;;;;;12.39;100.00;101385.38;4928105;29;20031;-76
2023/05/26 01:13:25;;;;;;;19.67;10.77;;;;;;;12.36;100.00;101391.50;4943978;29;20028;-76
2023/05/26 01:15:53;;;;;;;26.55;14.02;;;;;;;12.31;100.00;101386.78;4911788;29;20107;-76
2023/05/26 01:18:28;;;;;;;20.90;11.80;;;;;;;12.29;100.00;101377.91;4924754;29;20036;-76
2023/05/26 01:20:59;;;;;;;27.50;12.32;;;;;;;12.27;100.00;101368.97;4915035;29;20047;-76
2023/05/26 01:23:46;;;;;;;27.98;15.05;;;;;;;12.15;100.00;101386.03;4925230;29;20056;-76
2023/05/26 01:26:33;;;;;;;28.48;15.07;;;;;;;12.04;100.00;101381.59;4945047;29;20063;-76
2023/05/26 01:29:01;;;;;;;28.75;13.52;;;;;;;12.00;100.00;101378.53;4942409;29;20036;-76
2023/05/26 01:31:26;;;;;;;28.48;15.77;;;;;;;11.96;100.00;101384.97;4924432;29;20048;-76
2023/05/26 01:33:52;;;;;;;32.75;17.48;;;;;;;11.91;100.00;101380.22;4924743;29;20039;-76
2023/05/26 01:36:17;;;;;;;28.05;15.43;;;;;;;11.91;100.00;101379.41;4920033;29;20032;-76
2023/05/26 01:38:43;;;;;;;36.72;17.88;;;;;;;11.90;100.00;101377.75;4940611;29;20036;-76
2023/05/26 01:41:23;;;;;;;23.38;12.82;;;;;;;11.90;100.00;101381.34;4943806;29;20397;-76
2023/05/26 01:43:54;;;;;;;24.58;13.18;;;;;;;11.95;100.00;101377.69;4943953;29;20024;-75
2023/05/26 01:46:25;;;;;;;23.50;13.27;;;;;;;11.93;100.00;101379.97;4944873;29;20110;-75
2023/05/26 01:48:50;;;;;;;23.65;13.13;;;;;;;11.91;100.00;101382.19;4924443;29;20036;-76
2023/05/26 01:51:18;;;;;;;32.40;15.88;;;;;;;11.89;100.00;101378.84;4927490;29;20042;-76
2023/05/26 01:53:43;;;;;;;29.70;16.38;;;;;;;11.87;100.00;101375.50;4944433;29;20050;-76
2023/05/26 01:56:09;;;;;;;30.55;13.80;;;;;;;11.84;100.00;101376.88;4942968;29;20039;-76
2023/05/26 01:58:34;;;;;;;31.67;15.40;;;;;;;11.83;100.00;101376.03;4924635;29;20047;-76
2023/05/26 02:01:00;;;;;;;28.58;14.15;;;;;;;11.77;100.00;101370.75;4924114;29;20031;-76
2023/05/26 02:03:25;;;;;;;21.50;13.00;;;;;;;11.79;100.00;101374.94;4927600;29;20035;-76
2023/05/26 02:05:51;;;;;;;26.98;14.43;;;;;;;11.81;100.00;101372.72;4930953;29;20047;-75
2023/05/26 02:08:16;;;;;;;26.20;13.65;;;;;;;11.80;100.00;101373.81;4943719;29;20655;-76
2023/05/26 02:10:42;;;;;;;28.92;13.95;;;;;;;11.76;100.00;101374.69;4939817;29;20067;-76
2023/05/26 02:13:07;;;;;;;23.75;13.25;;;;;;;11.76;100.00;101378.28;4937358;29;20047;-76
2023/05/26 02:15:33;;;;;;;28.60;12.52;;;;;;;11.75;100.00;101376.59;4924598;29;20027;-76
2023/05/26 02:17:58;;;;;;;22.90;12.57;;;;;;;11.77;100.00;101373.56;4940419;29;20028;-76
2023/05/26 02:20:24;;;;;;;24.08;12.40;;;;;;;11.71;100.00;101381.06;4941317;29;20444;-76
2023/05/26 02:22:50;;;;;;;23.67;12.95;;;;;;;11.69;100.00;101376.91;4921268;29;20062;-75
2023/05/26 02:25:15;;;;;;;23.48;13.90;;;;;;;11.66;100.00;101378.28;4908650;29;20027;-76
2023/05/26 02:27:41;;;;;;;24.40;13.88;;;;;;;11.63;100.00;101376.91;4941356;29;20040;-75
2023/05/26 02:30:07;;;;;;;23.33;12.80;;;;;;;11.65;100.00;101373.84;4941270;29;20031;-76
2023/05/26 02:32:34;;;;;;;24.42;13.38;;;;;;;11.63;100.00;101376.06;4924484;29;20063;-76
2023/05/26 02:35:00;;;;;;;28.10;13.38;;;;;;;11.61;100.00;101378.28;4941088;29;20488;-76
2023/05/26 02:37:26;;;;;;;25.98;13.32;;;;;;;11.55;100.00;101368.28;4920959;29;20025;-75
2023/05/26 02:39:52;;;;;;;21.25;11.73;;;;;;;11.57;100.00;101366.06;4940196;29;20031;-76
2023/05/26 02:42:18;;;;;;;27.90;15.13;;;;;;;11.52;100.00;101364.13;4940002;29;20070;-76
2023/05/26 02:44:43;;;;;;;26.20;13.93;;;;;;;11.48;100.00;101362.16;4922294;29;20051;-76
2023/05/26 02:47:09;;;;;;;24.30;13.93;;;;;;;11.45;100.00;101368.28;4937032;29;20359;-76
2023/05/26 02:49:35;;;;;;;25.85;14.70;;;;;;;11.39;100.00;101370.25;4936197;29;20043;-76
2023/05/26 02:52:00;;;;;;;28.38;14.27;;;;;;;11.37;100.00;101369.69;4923417;29;20032;-75
2023/05/26 02:54:26;;;;;;;25.60;15.73;;;;;;;11.31;100.00;101368.88;4939858;29;20036;-76
2023/05/26 02:56:51;;;;;;;35.25;17.38;;;;;;;11.30;100.00;101372.75;4923728;29;20056;-76
2023/05/26 02:59:17;;;;;;;28.23;15.60;;;;;;;11.37;100.00;101364.13;4937968;29;20103;-76
2023/05/26 03:01:42;;;;;;;27.77;15.93;;;;;;;11.27;100.00;101364.13;4936493;29;20043;-76
2023/05/26 03:04:07;;;;;;;28.88;15.98;;;;;;;11.26;100.00;101368.03;4923637;29;20027;-76
2023/05/26 03:06:34;;;;;;;27.58;17.27;;;;;;;11.22;100.00;101364.94;4939238;29;20036;-76
2023/05/26 03:08:59;;;;;;;35.30;19.65;;;;;;;11.20;100.00;101356.09;4938084;29;20088;-75
2023/05/26 03:11:25;;;;;;;34.58;18.50;;;;;;;11.18;100.00;101364.69;4936315;29;20084;-76
2023/05/26 03:13:50;;;;;;;35.33;18.70;;;;;;;11.18;100.00;101363.84;4939591;29;20044;-76
2023/05/26 03:16:16;;;;;;;26.92;16.08;;;;;;;11.15;100.00;101358.84;4940476;29;20032;-76
2023/05/26 03:18:41;;;;;;;26.27;14.88;;;;;;;11.13;100.00;101361.91;4938031;29;20438;-76
2023/05/26 03:21:08;;;;;;;27.52;14.88;;;;;;;11.14;100.00;101359.94;4935554;29;20040;-76
2023/05/26 03:23:34;;;;;;;28.80;19.25;;;;;;;11.14;100.00;101376.63;4936177;29;20031;-76
2023/05/26 03:26:00;;;;;;;33.28;18.10;;;;;;;11.10;100.00;101368.00;4940456;29;20400;-76
2023/05/26 03:28:26;;;;;;;31.08;20.50;;;;;;;11.02;100.00;101364.94;4939029;29;20048;-76
2023/05/26 03:30:52;;;;;;;28.38;15.40;;;;;;;11.06;100.00;101369.69;4940283;29;20059;-76
2023/05/26 03:33:17;;;;;;;38.42;22.17;;;;;;;10.93;100.00;101368.28;4939014;29;20039;-76
2023/05/26 03:35:43;;;;;;;36.35;20.02;;;;;;;10.98;100.00;101367.47;4938912;29;20035;-75
2023/05/26 03:38:09;;;;;;;29.15;15.73;;;;;;;11.02;100.00;101365.78;4936735;29;20088;-76
2023/05/26 03:40:34;;;;;;;34.40;18.58;;;;;;;11.04;100.00;101376.63;4940120;29;20038;-76
2023/05/26 03:43:01;;;;;;;23.35;15.57;;;;;;;11.06;100.00;101371.59;4939993;29;20102;-75
2023/05/26 03:45:27;;;;;;;38.78;22.38;;;;;;;10.95;100.00;101368.00;4937708;28;20032;-76
2023/05/26 03:47:52;;;;;;;33.50;19.38;;;;;;;10.91;100.00;101370.47;4923053;29;20536;-76
2023/05/26 03:50:18;;;;;;;29.13;17.40;;;;;;;10.91;100.00;101370.47;4939713;29;20028;-76
2023/05/26 03:52:43;;;;;;;30.27;17.95;;;;;;;10.90;100.00;101368.00;4939236;29;20035;-76
2023/05/26 03:55:10;;;;;;;32.58;19.70;;;;;;;10.86;100.00;101364.91;4939808;29;20036;-76
2023/05/26 03:57:36;;;;;;;35.25;19.63;;;;;;;10.84;100.00;101364.38;4939520;29;20039;-76
2023/05/26 04:00:03;;;;;;;32.70;20.65;;;;;;;10.82;100.00;101374.94;4938478;29;20032;-76
2023/05/26 04:02:29;;;;;;;32.70;19.35;;;;;;;10.84;100.00;101369.09;4939602;29;20039;-76
2023/05/26 04:04:55;;;;;;;35.90;20.45;;;;;;;10.84;100.00;101369.94;4927826;29;20377;-75
2023/05/26 04:07:21;;;;;;;30.38;19.00;;;;;;;10.74;100.00;101362.41;4938274;29;20393;-76
2023/05/26 04:09:46;;;;;;;36.17;20.10;;;;;;;10.77;100.00;101368.53;4938508;29;20039;-76
2023/05/26 04:12:11;;;;;;;38.63;22.15;;;;;;;10.71;100.00;101381.56;4939532;29;20039;-76
2023/05/26 04:14:37;;;;;;;45.05;24.38;;;;;;;10.67;100.00;101374.88;4939497;29;20040;-76
2023/05/26 04:17:02;;;;;;;44.20;25.67;;;;;;;10.64;100.00;101375.41;4939373;29;20032;-76
2023/05/26 04:19:28;;;;;;;37.53;21.58;;;;;;;10.62;100.00;101369.31;4939495;29;20102;-76
2023/05/26 04:21:53;;;;;;;33.28;20.77;;;;;;;10.61;100.00;101373.19;4922316;29;20040;-76
2023/05/26 04:24:19;;;;;;;49.30;25.67;;;;;;;10.54;100.00;101381.78;4939449;29;20485;-75
2023/05/26 04:26:44;;;;;;;41.83;24.50;;;;;;;10.47;100.00;101375.66;4922254;29;20032;-76
2023/05/26 04:29:10;;;;;;;40.60;21.75;;;;;;;10.48;100.00;101378.16;4922404;29;20035;-76
2023/05/26 04:31:40;;;;;;;31.52;20.95;;;;;;;10.55;100.00;101372.34;4934851;29;20485;-76
2023/05/26 04:34:06;;;;;;;39.33;23.88;;;;;;;10.52;100.00;101373.72;4933613;29;20028;-76
2023/05/26 04:36:32;;;;;;;48.47;27.15;;;;;;;10.45;100.00;101380.66;4937867;29;20027;-76
2023/05/26 04:38:58;;;;;;;50.17;29.02;;;;;;;10.43;100.00;101382.88;4938089;29;20429;-76
2023/05/26 04:41:23;;;;;;;43.00;26.08;;;;;;;10.45;100.00;101375.94;4922099;29;20066;-75
2023/05/26 04:43:49;;;;;;;46.92;26.20;;;;;;;10.47;100.00;101376.50;4937928;29;20433;-75
2023/05/26 04:46:15;;;;;;;53.53;27.15;;;;;;;10.51;100.00;101382.34;4938983;29;20477;-75
2023/05/26 04:48:40;;;;;;;41.42;23.80;;;;;;;10.56;100.00;101381.50;4922267;29;20103;-76
2023/05/26 04:51:07;;;;;;;42.90;25.38;;;;;;;10.62;100.00;101386.81;4919647;29;20032;-75
2023/05/26 04:53:32;;;;;;;48.85;28.92;;;;;;;10.66;100.00;101378.78;4922017;29;20115;-76
2023/05/26 04:56:01;;;;;;;52.85;30.48;;;;;;;10.68;100.00;101387.69;4921935;29;20122;-76
2023/05/26 04:58:27;;;;;;;44.97;27.70;;;;;;;10.72;100.00;101395.16;4918841;29;20044;-76
2023/05/26 05:00:53;;;;;;;38.72;23.77;;;;;;;10.81;100.00;101398.28;4937598;29;20032;-76
2023/05/26 05:03:20;;;;;;;44.20;26.30;;;;;;;10.89;100.00;101396.88;4939037;29;20529;-76
2023/05/26 05:05:46;;;;;;;39.67;23.98;;;;;;;10.99;100.00;101398.84;4909459;29;20063;-76
2023/05/26 05:08:12;;;;;;;48.95;27.75;;;;;;;11.02;100.00;101392.75;4906208;29;20059;-76
2023/05/26 05:10:37;;;;;;;46.17;28.48;;;;;;;11.09;100.00;101393.31;4937022;29;20035;-76
2023/05/26 05:13:03;;;;;;;37.70;24.20;;;;;;;11.19;100.00;101390.53;4938912;29;20036;-75
2023/05/26 05:15:29;;;;;;;51.33;30.63;;;;;;;11.28;100.00;101401.94;4938698;29;20032;-76
2023/05/26 05:17:54;;;;;;;51.25;27.70;;;;;;;11.36;100.00;101402.22;4921515;29;20684;-76
2023/05/26 05:20:20;;;;;;;52.38;29.52;;;;;;;11.45;100.00;101404.44;4938499;29;20054;-76
2023/05/26 05:22:45;;;;;;;46.92;28.58;;;;;;;11.52;100.00;101397.50;4906064;29;20032;-76
2023/05/26 05:25:11;;;;;;;52.65;31.45;;;;;;;11.59;100.00;101408.38;4906227;29;20028;-76
2023/05/26 05:27:36;;;;;;;55.80;29.23;;;;;;;11.67;100.00;101405.00;4937398;29;20024;-76
2023/05/26 05:30:02;;;;;;;47.13;26.92;;;;;;;11.79;100.00;101407.50;4921672;29;20547;-76
2023/05/26 05:32:27;;;;;;;47.55;29.13;;;;;;;11.87;100.00;101408.91;4938698;29;20028;-76
2023/05/26 05:34:53;;;;;;;49.35;29.17;;;;;;;11.96;100.00;101410.00;4934975;29;20032;-76
2023/05/26 05:37:19;;;;;;;52.47;27.20;;;;;;;12.06;100.00;101409.97;4938568;29;20036;-76
2023/05/26 05:39:45;;;;;;;47.85;29.48;;;;;;;12.13;100.00;101412.47;4937495;28;20038;-76
2023/05/26 05:42:10;;;;;;;50.75;28.20;;;;;;;12.25;100.00;101415.78;4937652;29;20057;-76
2023/05/26 05:44:35;;;;;;;46.90;28.63;;;;;;;12.37;100.00;101410.72;4938698;29;20031;-76
2023/05/26 05:47:01;;;;;;;44.00;24.33;;;;;;;12.48;100.00;101417.94;4925049;29;20035;-76
2023/05/26 05:49:26;;;;;;;44.38;25.67;;;;;;;12.61;100.00;101413.69;4925105;29;20095;-76
2023/05/26 05:51:52;;;;;;;43.55;26.80;;;;;;;12.74;100.00;101412.25;4924788;29;20484;-76
2023/05/26 05:54:17;;;;;;;44.03;24.00;;;;;;;12.86;100.00;101415.50;4941999;29;20094;-76
2023/05/26 05:56:43;;;;;;;39.30;24.00;;;;;;;12.99;100.00;101416.84;4937412;28;20051;-76
2023/05/26 05:59:10;;;;;;;40.97;24.25;;;;;;;13.15;100.00;101417.56;4922919;29;20032;-76
2023/05/26 06:01:36;;;;;;;44.20;25.35;;;;;;;13.28;100.00;101410.53;4918460;29;20092;-76
2023/05/26 06:04:02;;;;;;;36.95;22.88;;;;;;;13.43;100.00;101412.34;4916716;29;20063;-76
2023/05/26 06:06:27;;;;;;;44.13;22.50;;;;;;;13.58;100.00;101409.44;4921349;29;20028;-76
2023/05/26 06:08:53;;;;;;;34.83;20.52;;;;;;;13.72;100.00;101407.63;4935709;29;20033;-76
2023/05/26 06:11:18;;;;;;;40.45;22.90;;;;;;;13.85;100.00;101418.13;4906019;29;20032;-76
2023/05/26 06:13:43;;;;;;;35.03;20.48;;;;;;;14.00;100.00;101416.31;4926531;29;20100;-76
2023/05/26 06:16:09;;;;;;;40.88;22.40;;;;;;;14.16;100.00;101425.38;4937188;29;20508;-76
2023/05/26 06:18:34;;;;;;;35.97;22.45;;;;;;;14.24;100.00;101422.75;4935377;29;20036;-76
2023/05/26 06:21:00;;;;;;;46.67;22.25;;;;;;;14.41;100.00;101430.66;4937285;29;20040;-76
2023/05/26 06:23:25;;;;;;;37.38;22.17;;;;;;;14.52;100.00;101434.19;4937316;29;20426;-76
2023/05/26 06:25:51;;;;;;;32.28;19.63;;;;;;;14.69;100.00;101431.75;4937228;29;20032;-76
2023/05/26 06:28:16;;;;;;;33.13;19.90;;;;;;;14.80;100.00;101429.66;4937210;29;20062;-76
2023/05/26 06:30:42;;;;;;;34.30;18.85;;;;;;;14.96;100.00;101427.47;4922326;29;20028;-76
2023/05/26 06:33:07;;;;;;;32.67;19.30;;;;;;;15.13;100.00;101422.19;4922410;29;20091;-76
2023/05/26 06:35:33;;;;;;;36.80;18.48;;;;;;;15.19;100.00;101426.56;4921984;29;20032;-76
2023/05/26 06:37:58;;;;;;;34.03;18.65;;;;;;;15.30;100.00;101424.44;4921113;29;20043;-76
2023/05/26 06:40:24;;;;;;;36.67;18.85;;;;;;;15.44;100.00;101426.47;4933933;29;20051;-76
2023/05/26 06:42:50;;;;;;;33.70;18.88;;;;;;;15.55;100.00;101427.97;4915877;29;20386;-76
2023/05/26 06:45:15;;;;;;;36.70;17.85;;;;;;;15.68;100.00;101430.00;4922023;29;20028;-76
2023/05/26 06:47:40;;;;;;;33.50;19.20;;;;;;;15.76;100.00;101426.50;4933455;29;20036;-76
2023/05/26 06:50:07;;;;;;;33.35;17.58;;;;;;;15.97;100.00;101420.53;4933464;29;20032;-76
2023/05/26 06:52:32;;;;;;;30.20;16.58;;;;;;;16.01;100.00;101428.00;4921665;29;20025;-76
2023/05/26 06:54:58;;;;;;;34.35;18.40;;;;;;;16.07;100.00;101424.00;4909277;29;20418;-76
2023/05/26 06:57:23;;;;;;;36.53;18.02;;;;;;;16.21;100.00;101421.19;4935585;29;20099;-76
2023/05/26 06:59:49;;;;;;;28.30;15.95;;;;;;;16.34;100.00;101413.09;4920560;29;20028;-76
2023/05/26 07:02:14;;;;;;;29.77;16.35;;;;;;;16.44;100.00;101418.53;4921839;29;20036;-76
2023/05/26 07:04:41;;;;;;;33.03;16.70;;;;;;;16.54;100.00;101418.28;4932837;29;20044;-76
2023/05/26 07:07:07;;;;;;;26.55;14.65;;;;;;;16.60;100.00;101422.63;4935745;29;20032;-76
2023/05/26 07:09:32;;;;;;;27.20;15.02;;;;;;;16.65;100.00;101425.34;4921833;29;20036;-76
2023/05/26 07:11:58;;;;;;;30.95;15.20;;;;;;;16.71;100.00;101426.88;4920666;29;20039;-76
2023/05/26 07:14:23;;;;;;;32.17;15.27;;;;;;;16.93;100.00;101422.53;4920500;29;20087;-76
2023/05/26 07:16:49;;;;;;;25.63;13.52;;;;;;;17.03;100.00;101419.50;4925998;29;20032;-76
2023/05/26 07:19:14;;;;;;;29.75;15.18;;;;;;;17.15;100.00;101427.34;4920279;29;20028;-77
2023/05/26 07:21:40;;;;;;;29.48;13.88;;;;;;;17.32;100.00;101433.13;4933210;29;20085;-77
2023/05/26 07:24:05;;;;;;;26.50;12.73;;;;;;;17.37;100.00;101432.19;4921500;29;20047;-77
2023/05/26 07:26:31;;;;;;;24.15;11.27;;;;;;;17.53;100.00;101433.47;4935878;29;20024;-76
2023/05/26 07:28:56;;;;;;;26.92;12.50;;;;;;;17.69;100.00;101427.44;4920164;29;20036;-77
2023/05/26 07:31:22;;;;;;;23.13;11.57;;;;;;;17.80;100.00;101432.53;4916965;29;20510;-77
2023/05/26 07:33:47;;;;;;;24.00;11.68;;;;;;;17.90;100.00;101422.19;4916958;29;20033;-76
2023/05/26 07:36:13;;;;;;;23.38;11.25;;;;;;;17.92;100.00;101420.69;4927484;29;20039;-77
2023/05/26 07:38:39;;;;;;;19.20;10.40;;;;;;;18.00;100.00;101419.09;4938543;29;20036;-77
2023/05/26 07:41:04;;;;;;;25.33;10.20;;;;;;;17.98;100.00;101424.22;4904373;29;20048;-76
2023/05/26 07:43:30;;;;;;;28.15;11.23;;;;;;;18.09;100.00;101419.97;4906195;29;20066;-76
2023/05/26 07:45:55;;;;;;;20.50;10.63;;;;;;;18.22;100.00;101419.03;4921021;29;20540;-76
2023/05/26 07:48:20;;;;;;;27.40;11.15;;;;;;;18.31;100.00;101414.28;4920967;29;20043;-77
2023/05/26 07:50:46;;;;;;;22.95;10.00;;;;;;;18.42;100.00;101414.81;4919625;29;20079;-77
2023/05/26 07:53:11;;;;;;;24.20;9.93;;;;;;;18.43;100.00;101418.47;4920267;29;20032;-77
2023/05/26 07:55:37;;;;;;;16.20;8.90;;;;;;;18.58;100.00;101414.34;4924003;29;20028;-77
2023/05/26 07:58:02;;;;;;;21.50;9.55;;;;;;;18.62;100.00;101421.00;4926014;29;20624;-77
2023/05/26 08:00:28;;;;;;;22.33;10.10;;;;;;;18.71;100.00;101416.22;4921560;29;20028;-77
2023/05/26 08:02:54;;;;;;;21.13;9.25;;;;;;;18.84;100.00;101418.09;4919539;29;20054;-77
2023/05/26 08:05:19;;;;;;;18.52;9.50;;;;;;;18.92;100.00;101413.66;4925301;29;20052;-77
2023/05/26 08:07:45;;;;;;;23.38;9.73;;;;;;;19.07;100.00;101410.34;4931348;29;20047;-77
2023/05/26 08:10:10;;;;;;;20.52;9.10;;;;;;;19.13;100.00;101409.03;4903383;29;20035;-78
2023/05/26 08:12:36;;;;;;;17.52;8.25;;;;;;;19.29;100.00;101411.38;4925528;29;20040;-77
2023/05/26 08:15:14;;;;;;;17.00;8.77;;;;;;;19.31;100.00;101414.69;4923005;29;20051;-77
2023/05/26 08:17:40;;;;;;;18.80;8.88;;;;;;;19.38;100.00;101415.81;4903486;29;20036;-77
2023/05/26 08:20:06;;;;;;;23.05;9.32;;;;;;;19.44;100.00;101408.03;4937010;29;20110;-77
2023/05/26 08:22:32;;;;;;;17.23;8.63;;;;;;;19.55;100.00;101414.16;4932658;28;20029;-77
2023/05/26 08:24:58;;;;;;;16.92;7.72;;;;;;;19.59;98.25;101420.78;4934965;29;20032;-77
2023/05/26 08:27:24;;;;;;;18.73;8.65;;;;;;;19.68;98.82;101423.63;4919088;29;20040;-77
2023/05/26 08:29:49;;;;;;;18.90;7.82;;;;;;;19.77;96.82;101408.34;4920344;29;20032;-78
2023/05/26 08:32:15;;;;;;;18.73;8.25;;;;;;;19.83;96.86;101415.44;4934873;29;20036;-78
2023/05/26 08:34:42;;;;;;;20.10;7.85;;;;;;;19.87;94.13;101410.00;4934923;29;20040;-79
2023/05/26 08:37:08;;;;;;;19.20;8.00;;;;;;;19.85;92.45;101409.50;4934341;29;20543;-77
2023/05/26 08:39:34;;;;;;;20.25;7.70;;;;;;;19.96;94.65;101416.44;4931052;29;20024;-78
2023/05/26 08:42:00;;;;;;;21.08;7.80;;;;;;;20.03;94.30;101410.25;4931928;29;20485;-78
2023/05/26 08:44:26;;;;;;;17.77;8.18;;;;;;;20.12;93.44;101413.91;4934753;29;20063;-79
2023/05/26 08:46:55;;;;;;;17.08;7.88;;;;;;;20.11;89.93;101412.22;4934656;29;20501;-79
2023/05/26 08:49:21;;;;;;;19.38;8.65;;;;;;;20.17;90.99;101413.72;4933852;29;20063;-79
2023/05/26 08:52:08;;;;;;;19.02;7.78;;;;;;;20.20;90.17;101406.59;4920665;29;20032;-80
2023/05/26 08:54:33;;;;;;;19.13;8.02;;;;;;;20.33;88.96;101407.50;4905574;29;20024;-81
2023/05/26 08:56:59;;;;;;;18.73;7.03;;;;;;;20.37;84.91;101412.16;4918826;29;20075;-80
2023/05/26 08:59:24;;;;;;;19.25;7.53;;;;;;;20.53;86.22;101406.75;4917409;29;20401;-78
2023/05/26 09:01:50;;;;;;;16.77;7.13;;;;;;;20.67;86.83;101412.16;4934861;29;20036;-79
2023/05/26 09:04:15;;;;;;;19.40;7.70;;;;;;;20.69;81.68;101409.84;4920061;29;20044;-78
2023/05/26 09:06:45;;;;;;;20.23;6.85;;;;;;;20.75;80.54;101398.03;4918355;29;20032;-78
2023/05/26 09:09:11;;;;;;;18.58;7.35;;;;;;;20.81;82.59;101406.28;4934520;29;20685;-78
2023/05/26 09:11:43;;;;;;;18.45;7.60;;;;;;;20.81;80.66;101409.09;4918766;29;20400;-78
2023/05/26 09:14:16;;;;;;;21.60;7.50;;;;;;;21.03;78.35;101388.19;4918740;29;20028;-78
2023/05/26 09:16:41;;;;;;;21.48;7.32;;;;;;;21.17;78.62;101409.34;4918613;29;20112;-79
2023/05/26 09:19:11;;;;;;;19.30;7.60;;;;;;;21.26;80.15;101397.97;4918755;29;20068;-79
2023/05/26 09:21:36;;;;;;;18.30;7.40;;;;;;;21.36;79.15;101408.84;4918587;29;20155;-79
2023/05/26 09:24:02;;;;;;;21.58;7.65;;;;;;;21.41;76.06;101405.03;4935196;29;20056;-78
2023/05/26 09:26:33;;;;;;;21.00;6.75;;;;;;;21.35;73.70;101407.19;4917279;29;20537;-78
2023/05/26 09:28:59;;;;;;;17.60;7.32;;;;;;;21.52;76.03;101400.59;4938114;29;20047;-75
2023/05/26 09:31:25;;;;;;;18.63;6.93;;;;;;;21.55;75.73;101405.53;4942488;29;20092;-73
2023/05/26 09:33:51;;;;;;;16.42;7.50;;;;;;;21.55;70.52;101404.72;4916715;29;20501;-73
2023/05/26 09:36:18;;;;;;;15.95;6.95;;;;;;;21.47;69.76;101406.44;4927256;29;20473;-73
2023/05/26 09:38:43;;;;;;;18.33;7.15;;;;;;;21.55;71.13;101399.06;4921837;29;20032;-73
2023/05/26 09:41:09;;;;;;;16.20;6.65;;;;;;;21.68;73.72;101412.09;4938226;29;20119;-73
2023/05/26 09:43:36;;;;;;;15.00;6.70;;;;;;;21.61;70.94;101408.97;4922013;29;20060;-73
2023/05/26 09:46:09;;;;;;;14.65;6.82;;;;;;;21.75;70.04;101398.19;4921780;29;20035;-72
2023/05/26 09:48:36;;;;;;;;;;;;;;;21.82;71.36;101403.28;4922236;29;20028;-73
2023/05/26 09:51:01;;;;;;;14.82;6.13;;;;;;;21.98;73.77;101392.13;4937607;29;19914;-73
2023/05/26 09:53:27;;;;;;;14.30;6.60;;;;;;;21.93;68.94;101398.84;4937800;29;20028;-78
2023/05/26 09:55:52;;;;;;;19.02;7.18;;;;;;;21.91;64.82;101389.88;4921947;29;20642;-78
2023/05/26 09:58:18;;;;;;;14.50;6.05;;;;;;;21.99;66.74;101394.59;4921766;29;20059;-78
2023/05/26 10:00:43;;;;;;;18.40;6.93;;;;;;;22.08;66.35;101386.03;4921796;29;20512;-78
2023/05/26 10:03:14;;;;;;;16.58;6.10;;;;;;;22.21;68.51;101381.25;4937657;29;20453;-78
2023/05/26 10:05:45;;;;;;;16.73;6.78;;;;;;;22.15;65.90;101385.44;4915104;29;20111;-78
2023/05/26 10:08:10;;;;;;;18.40;7.35;;;;;;;22.04;65.80;101383.06;4922493;29;20489;-78
2023/05/26 10:10:36;;;;;;;15.20;6.88;;;;;;;22.17;66.45;101380.25;4920356;29;20055;-78
2023/05/26 10:13:03;;;;;;;17.48;6.88;;;;;;;22.26;66.25;101389.50;4934530;29;20382;-77
2023/05/26 10:15:29;;;;;;;17.50;6.88;;;;;;;22.32;64.74;101375.94;4937049;29;20063;-77
2023/05/26 10:17:56;;;;;;;15.27;6.05;;;;;;;22.43;68.06;101377.13;4937312;29;20040;-78
2023/05/26 10:20:22;;;;;;;16.38;6.05;;;;;;;22.58;65.37;101378.41;4922003;29;20119;-77
2023/05/26 10:22:56;;;;;;;17.25;6.20;;;;;;;22.67;65.02;101379.09;4937866;29;20036;-78
2023/05/26 10:25:35;;;;;;;14.02;6.28;;;;;;;22.69;66.24;101380.41;4937688;29;20040;-80
2023/05/26 10:28:11;;;;;;;15.05;6.28;;;;;;;22.72;61.12;101379.69;4902744;29;20103;-78
2023/05/26 10:30:37;;;;;;;13.57;5.50;;;;;;;22.78;62.80;101370.94;4919756;29;20056;-77
2023/05/26 10:33:16;;;;;;;16.95;6.10;;;;;;;22.99;61.13;101373.66;4886441;29;20039;-76
2023/05/26 10:35:55;;;;;;;17.60;6.15;;;;;;;22.89;61.33;101383.44;4923594;29;20032;-76
2023/05/26 10:38:25;;;;;;;12.60;5.40;;;;;;;22.93;60.60;101378.72;4920593;29;20044;-76
2023/05/26 10:40:51;;;;;;;15.30;6.47;;;;;;;22.93;59.46;101373.88;4936785;29;20028;-76
2023/05/26 10:43:26;;;;;;;17.58;5.90;;;;;;;23.02;60.01;101359.59;4922102;29;20038;-76
2023/05/26 10:45:55;;;;;;;16.00;6.15;;;;;;;23.10;61.36;101366.31;4921965;29;20036;-76
2023/05/26 10:48:24;;;;;;;16.30;5.45;;;;;;;23.13;60.96;101359.94;4936321;29;20529;-76
2023/05/26 10:50:59;;;;;;;15.02;5.60;;;;;;;23.25;59.04;101354.19;4935633;28;20037;-76
2023/05/26 10:53:32;;;;;;;14.25;6.03;;;;;;;23.31;57.77;101364.09;4918177;29;20404;-77
2023/05/26 10:55:59;;;;;;;16.02;5.45;;;;;;;23.38;56.02;101350.13;4904918;29;20032;-76
2023/05/26 10:58:33;;;;;;;16.42;5.30;;;;;;;23.35;58.05;101367.88;4933220;29;20055;-77
2023/05/26 11:01:06;;;;;;;13.02;5.75;;;;;;;23.48;57.86;101348.78;4935351;29;20544;-77
2023/05/26 11:03:35;;;;;;;14.27;5.28;;;;;;;23.48;57.22;101351.63;4938392;29;20040;-77